CEB316 RPLL-RPVA
Flight info
| Callsign | CEB316 |
|---|---|
| Flight time | 0h 56m |
| Altitude | 37000 |
| Route | IPATA4V IPATA B462 ARREX ARREX2R |
| Aircraft | A20N/M-SDE2E3FGHIRWXY/LB1 |
Departure
| Time | 2026-04-23 03:43 |
|---|---|
| Airport | Ninoy Aquino International Airport (RPLL) |
Arrival
| Time | 2026-04-23 04:40 |
|---|---|
| Airport | Daniel Z. Romualdez Airport (RPVA) |
| Time | Latitude | Longitude | Altitude | Speed | Heading |
|---|---|---|---|---|---|
| 2026-04-23 03:03 | 14.51733 | 121.01634 | 70 ft | 0 kts | 226° |
| 2026-04-23 03:31 | 14.51735 | 121.01636 | 64 ft | 2 kts | 226° |
| 2026-04-23 03:31 | 14.51753 | 121.01655 | 67 ft | 4 kts | 226° |
| 2026-04-23 03:31 | 14.51772 | 121.01675 | 61 ft | 4 kts | 221° |
| 2026-04-23 03:31 | 14.51784 | 121.01687 | 61 ft | 3 kts | 141° |
| 2026-04-23 03:32 | 14.51799 | 121.01672 | 67 ft | 4 kts | 135° |
| 2026-04-23 03:32 | 14.51803 | 121.01668 | 61 ft | 0 kts | 135° |
| 2026-04-23 03:37 | 14.51801 | 121.01670 | 67 ft | 4 kts | 135° |
| 2026-04-23 03:38 | 14.51744 | 121.01729 | 72 ft | 14 kts | 135° |
| 2026-04-23 03:38 | 14.51667 | 121.01784 | 69 ft | 11 kts | 181° |
| 2026-04-23 03:38 | 14.51622 | 121.01773 | 70 ft | 12 kts | 220° |
| 2026-04-23 03:38 | 14.51542 | 121.01690 | 65 ft | 19 kts | 224° |
| 2026-04-23 03:39 | 14.51495 | 121.01643 | 72 ft | 0 kts | 221° |
| 2026-04-23 03:40 | 14.51483 | 121.01632 | 66 ft | 12 kts | 219° |
| 2026-04-23 03:40 | 14.51384 | 121.01569 | 72 ft | 10 kts | 173° |
| 2026-04-23 03:40 | 14.51316 | 121.01631 | 66 ft | 23 kts | 133° |
| 2026-04-23 03:40 | 14.51193 | 121.01755 | 68 ft | 26 kts | 139° |
| 2026-04-23 03:41 | 14.51078 | 121.01874 | 69 ft | 20 kts | 138° |
| 2026-04-23 03:41 | 14.51028 | 121.01912 | 67 ft | 5 kts | 188° |
| 2026-04-23 03:41 | 14.50980 | 121.01870 | 66 ft | 14 kts | 250° |
| 2026-04-23 03:41 | 14.51013 | 121.01804 | 69 ft | 11 kts | 311° |
| 2026-04-23 03:42 | 14.51067 | 121.01749 | 64 ft | 12 kts | 317° |
| 2026-04-23 03:42 | 14.51127 | 121.01683 | 69 ft | 11 kts | 309° |
| 2026-04-23 03:42 | 14.51131 | 121.01677 | 64 ft | 0 kts | 314° |
| 2026-04-23 03:42 | 14.51134 | 121.01675 | 67 ft | 2 kts | 314° |
| 2026-04-23 03:43 | 14.51267 | 121.01539 | 67 ft | 67 kts | 314° |
| 2026-04-23 03:43 | 14.51765 | 121.01020 | 83 ft | 135 kts | 315° |
| 2026-04-23 03:43 | 14.52447 | 121.00329 | 513 ft | 148 kts | 314° |
| 2026-04-23 03:43 | 14.53206 | 120.99543 | 1190 ft | 150 kts | 314° |
| 2026-04-23 03:44 | 14.53977 | 120.98742 | 1685 ft | 174 kts | 314° |
| 2026-04-23 03:44 | 14.54930 | 120.97752 | 1931 ft | 216 kts | 314° |
| 2026-04-23 03:44 | 14.56085 | 120.96556 | 2363 ft | 253 kts | 315° |
| 2026-04-23 03:44 | 14.57371 | 120.95226 | 3184 ft | 266 kts | 315° |
| 2026-04-23 03:45 | 14.58692 | 120.93861 | 4188 ft | 271 kts | 315° |
| 2026-04-23 03:45 | 14.60039 | 120.92468 | 5195 ft | 277 kts | 315° |
| 2026-04-23 03:45 | 14.61383 | 120.91081 | 6194 ft | 281 kts | 316° |
| 2026-04-23 03:45 | 14.62875 | 120.89792 | 7160 ft | 284 kts | 327° |
| 2026-04-23 03:46 | 14.64665 | 120.88910 | 8142 ft | 287 kts | 344° |
| 2026-04-23 03:46 | 14.66640 | 120.88614 | 9148 ft | 290 kts | 2° |
| 2026-04-23 03:46 | 14.68594 | 120.88943 | 10098 ft | 292 kts | 19° |
| 2026-04-23 03:46 | 14.70455 | 120.89895 | 10669 ft | 311 kts | 37° |
| 2026-04-23 03:47 | 14.71996 | 120.91536 | 11205 ft | 325 kts | 57° |
| 2026-04-23 03:47 | 14.72941 | 120.93678 | 11960 ft | 332 kts | 76° |
| 2026-04-23 03:47 | 14.73145 | 120.96017 | 12772 ft | 337 kts | 95° |
| 2026-04-23 03:47 | 14.72543 | 120.98361 | 13675 ft | 340 kts | 115° |
| 2026-04-23 03:48 | 14.71184 | 121.00368 | 14405 ft | 347 kts | 135° |
| 2026-04-23 03:48 | 14.69181 | 121.01783 | 15092 ft | 355 kts | 155° |
| 2026-04-23 03:48 | 14.66864 | 121.02725 | 15812 ft | 361 kts | 161° |
| 2026-04-23 03:48 | 14.64472 | 121.03574 | 16543 ft | 367 kts | 161° |
| 2026-04-23 03:49 | 14.62036 | 121.04432 | 17295 ft | 371 kts | 161° |
| 2026-04-23 03:49 | 14.59578 | 121.05310 | 18013 ft | 377 kts | 161° |
| 2026-04-23 03:49 | 14.57092 | 121.06208 | 18626 ft | 381 kts | 161° |
| 2026-04-23 03:49 | 14.54577 | 121.07122 | 19236 ft | 385 kts | 161° |
| 2026-04-23 03:50 | 14.52043 | 121.08046 | 19865 ft | 387 kts | 161° |
| 2026-04-23 03:50 | 14.49496 | 121.08977 | 20474 ft | 390 kts | 161° |
| 2026-04-23 03:50 | 14.46969 | 121.09946 | 21101 ft | 394 kts | 157° |
| 2026-04-23 03:50 | 14.44645 | 121.11466 | 21728 ft | 400 kts | 142° |
| 2026-04-23 03:51 | 14.42607 | 121.13438 | 22358 ft | 404 kts | 134° |
| 2026-04-23 03:51 | 14.40727 | 121.15625 | 22990 ft | 409 kts | 131° |
| 2026-04-23 03:51 | 14.38921 | 121.17908 | 23600 ft | 413 kts | 130° |
| 2026-04-23 03:51 | 14.37119 | 121.20235 | 24132 ft | 417 kts | 130° |
| 2026-04-23 03:52 | 14.35297 | 121.22566 | 24672 ft | 420 kts | 130° |
| 2026-04-23 03:52 | 14.33431 | 121.24909 | 25224 ft | 423 kts | 131° |
| 2026-04-23 03:52 | 14.31537 | 121.27243 | 25783 ft | 426 kts | 131° |
| 2026-04-23 03:52 | 14.29644 | 121.29549 | 26316 ft | 429 kts | 131° |
| 2026-04-23 03:53 | 14.27703 | 121.31894 | 26836 ft | 432 kts | 131° |
| 2026-04-23 03:53 | 14.25743 | 121.34254 | 27342 ft | 435 kts | 131° |
| 2026-04-23 03:53 | 14.23766 | 121.36631 | 27828 ft | 438 kts | 131° |
| 2026-04-23 03:53 | 14.21776 | 121.39024 | 28320 ft | 441 kts | 131° |
| 2026-04-23 03:54 | 14.19775 | 121.41432 | 28798 ft | 444 kts | 131° |
| 2026-04-23 03:54 | 14.17756 | 121.43861 | 29267 ft | 447 kts | 131° |
| 2026-04-23 03:54 | 14.15730 | 121.46300 | 29737 ft | 450 kts | 131° |
| 2026-04-23 03:54 | 14.13712 | 121.48731 | 30160 ft | 453 kts | 131° |
| 2026-04-23 03:55 | 14.11660 | 121.51202 | 30596 ft | 455 kts | 131° |
| 2026-04-23 03:55 | 14.09607 | 121.53674 | 30861 ft | 454 kts | 131° |
| 2026-04-23 03:55 | 14.05494 | 121.58625 | 30918 ft | 455 kts | 131° |
| 2026-04-23 03:56 | 14.01378 | 121.63573 | 30916 ft | 455 kts | 131° |
| 2026-04-23 03:56 | 13.97262 | 121.68517 | 30913 ft | 454 kts | 131° |
| 2026-04-23 03:57 | 13.93188 | 121.73409 | 30914 ft | 453 kts | 131° |
| 2026-04-23 03:57 | 13.89080 | 121.78341 | 30910 ft | 454 kts | 131° |
| 2026-04-23 03:58 | 13.84989 | 121.83272 | 30911 ft | 452 kts | 130° |
| 2026-04-23 03:58 | 13.80944 | 121.88228 | 30909 ft | 452 kts | 130° |
| 2026-04-23 03:59 | 13.76939 | 121.93150 | 30908 ft | 452 kts | 130° |
| 2026-04-23 03:59 | 13.72903 | 121.98102 | 30908 ft | 452 kts | 130° |
| 2026-04-23 04:00 | 13.68863 | 122.03049 | 30911 ft | 452 kts | 130° |
| 2026-04-23 04:00 | 13.64818 | 122.07997 | 30909 ft | 452 kts | 131° |
| 2026-04-23 04:01 | 13.60804 | 122.12905 | 30909 ft | 451 kts | 130° |
| 2026-04-23 04:01 | 13.57343 | 122.17134 | 30911 ft | 451 kts | 131° |
| 2026-04-23 04:02 | 13.53301 | 122.22070 | 30911 ft | 451 kts | 131° |
| 2026-04-23 04:02 | 13.49261 | 122.27003 | 30911 ft | 451 kts | 131° |
| 2026-04-23 04:03 | 13.45220 | 122.31932 | 30908 ft | 451 kts | 131° |
| 2026-04-23 04:03 | 13.41207 | 122.36825 | 30909 ft | 451 kts | 131° |
| 2026-04-23 04:04 | 13.37168 | 122.41747 | 30908 ft | 450 kts | 131° |
| 2026-04-23 04:04 | 13.33128 | 122.46667 | 30908 ft | 450 kts | 131° |
| 2026-04-23 04:05 | 13.29098 | 122.51573 | 30912 ft | 450 kts | 131° |
| 2026-04-23 04:05 | 13.25395 | 122.56079 | 30912 ft | 450 kts | 131° |
| 2026-04-23 04:06 | 13.21429 | 122.60901 | 30910 ft | 450 kts | 131° |
| 2026-04-23 04:06 | 13.17389 | 122.65810 | 30908 ft | 450 kts | 131° |
| 2026-04-23 04:07 | 13.13353 | 122.70711 | 30906 ft | 450 kts | 131° |
| 2026-04-23 04:07 | 13.09340 | 122.75582 | 30906 ft | 450 kts | 131° |
| 2026-04-23 04:08 | 13.05303 | 122.80479 | 30906 ft | 450 kts | 131° |
| 2026-04-23 04:08 | 13.01266 | 122.85374 | 30903 ft | 450 kts | 131° |
| 2026-04-23 04:09 | 12.97230 | 122.90266 | 30902 ft | 450 kts | 131° |
| 2026-04-23 04:09 | 12.93187 | 122.95163 | 30903 ft | 450 kts | 131° |
| 2026-04-23 04:10 | 12.89144 | 123.00057 | 30900 ft | 450 kts | 131° |
| 2026-04-23 04:10 | 12.85126 | 123.04919 | 30900 ft | 450 kts | 131° |
| 2026-04-23 04:11 | 12.81083 | 123.09808 | 30901 ft | 450 kts | 131° |
| 2026-04-23 04:11 | 12.77034 | 123.14702 | 30900 ft | 450 kts | 131° |
| 2026-04-23 04:12 | 12.72991 | 123.19584 | 30900 ft | 449 kts | 131° |
| 2026-04-23 04:12 | 12.68978 | 123.24428 | 30900 ft | 449 kts | 131° |
| 2026-04-23 04:13 | 12.64938 | 123.29303 | 30900 ft | 449 kts | 131° |
| 2026-04-23 04:13 | 12.60895 | 123.34179 | 30900 ft | 449 kts | 131° |
| 2026-04-23 04:14 | 12.56853 | 123.39050 | 30896 ft | 449 kts | 131° |
| 2026-04-23 04:14 | 12.54841 | 123.41476 | 30705 ft | 445 kts | 131° |
| 2026-04-23 04:14 | 12.52871 | 123.43849 | 30481 ft | 443 kts | 131° |
| 2026-04-23 04:15 | 12.50881 | 123.46245 | 30298 ft | 440 kts | 131° |
| 2026-04-23 04:15 | 12.48903 | 123.48626 | 30095 ft | 438 kts | 131° |
| 2026-04-23 04:15 | 12.44966 | 123.53365 | 29893 ft | 436 kts | 131° |
| 2026-04-23 04:16 | 12.43003 | 123.55725 | 29900 ft | 435 kts | 131° |
| 2026-04-23 04:16 | 12.39083 | 123.60440 | 29859 ft | 435 kts | 131° |
| 2026-04-23 04:16 | 12.37127 | 123.62793 | 29594 ft | 433 kts | 131° |
| 2026-04-23 04:17 | 12.35197 | 123.65160 | 29335 ft | 433 kts | 130° |
| 2026-04-23 04:17 | 12.33307 | 123.67497 | 29077 ft | 432 kts | 130° |
| 2026-04-23 04:17 | 12.31398 | 123.69857 | 28817 ft | 431 kts | 130° |
| 2026-04-23 04:17 | 12.29491 | 123.72215 | 28559 ft | 429 kts | 130° |
| 2026-04-23 04:18 | 12.27592 | 123.74562 | 28311 ft | 428 kts | 130° |
| 2026-04-23 04:18 | 12.25695 | 123.76903 | 28054 ft | 427 kts | 130° |
| 2026-04-23 04:18 | 12.23803 | 123.79238 | 27804 ft | 426 kts | 130° |
| 2026-04-23 04:18 | 12.21918 | 123.81564 | 27560 ft | 424 kts | 130° |
| 2026-04-23 04:19 | 12.20036 | 123.83885 | 27309 ft | 423 kts | 130° |
| 2026-04-23 04:19 | 12.18183 | 123.86171 | 27075 ft | 422 kts | 130° |
| 2026-04-23 04:19 | 12.16316 | 123.88473 | 26830 ft | 420 kts | 130° |
| 2026-04-23 04:19 | 12.14455 | 123.90766 | 26590 ft | 418 kts | 130° |
| 2026-04-23 04:20 | 12.12603 | 123.93049 | 26351 ft | 416 kts | 130° |
| 2026-04-23 04:20 | 12.10758 | 123.95322 | 26115 ft | 415 kts | 130° |
| 2026-04-23 04:20 | 12.08916 | 123.97592 | 25885 ft | 414 kts | 130° |
| 2026-04-23 04:20 | 12.07079 | 123.99854 | 25627 ft | 410 kts | 130° |
| 2026-04-23 04:21 | 12.05272 | 124.02079 | 25158 ft | 406 kts | 130° |
| 2026-04-23 04:21 | 12.03472 | 124.04293 | 24618 ft | 405 kts | 129° |
| 2026-04-23 04:21 | 12.01700 | 124.06475 | 24069 ft | 404 kts | 129° |
| 2026-04-23 04:21 | 11.99906 | 124.08681 | 23504 ft | 404 kts | 129° |
| 2026-04-23 04:22 | 11.98113 | 124.10888 | 22850 ft | 403 kts | 129° |
| 2026-04-23 04:22 | 11.96330 | 124.13080 | 22257 ft | 400 kts | 130° |
| 2026-04-23 04:22 | 11.94562 | 124.15254 | 21691 ft | 396 kts | 130° |
| 2026-04-23 04:22 | 11.92811 | 124.17406 | 21133 ft | 392 kts | 130° |
| 2026-04-23 04:23 | 11.91074 | 124.19542 | 20577 ft | 389 kts | 130° |
| 2026-04-23 04:23 | 11.89354 | 124.21656 | 20031 ft | 385 kts | 130° |
| 2026-04-23 04:23 | 11.87667 | 124.23719 | 19480 ft | 382 kts | 131° |
| 2026-04-23 04:23 | 11.85974 | 124.25790 | 18925 ft | 379 kts | 130° |
| 2026-04-23 04:24 | 11.84289 | 124.27850 | 18361 ft | 376 kts | 131° |
| 2026-04-23 04:24 | 11.82621 | 124.29893 | 17758 ft | 374 kts | 130° |
| 2026-04-23 04:24 | 11.80968 | 124.31916 | 17189 ft | 368 kts | 131° |
| 2026-04-23 04:24 | 11.79350 | 124.33911 | 16655 ft | 363 kts | 131° |
| 2026-04-23 04:25 | 11.77749 | 124.35885 | 16127 ft | 358 kts | 131° |
| 2026-04-23 04:25 | 11.76167 | 124.37833 | 15606 ft | 354 kts | 131° |
| 2026-04-23 04:25 | 11.74611 | 124.39746 | 15093 ft | 350 kts | 131° |
| 2026-04-23 04:25 | 11.73054 | 124.41658 | 14579 ft | 347 kts | 131° |
| 2026-04-23 04:26 | 11.71538 | 124.43517 | 14083 ft | 344 kts | 131° |
| 2026-04-23 04:26 | 11.70017 | 124.45384 | 13562 ft | 341 kts | 131° |
| 2026-04-23 04:26 | 11.68507 | 124.47235 | 13020 ft | 337 kts | 131° |
| 2026-04-23 04:26 | 11.67018 | 124.49060 | 12507 ft | 333 kts | 132° |
| 2026-04-23 04:27 | 11.65541 | 124.50869 | 12023 ft | 330 kts | 131° |
| 2026-04-23 04:27 | 11.64077 | 124.52662 | 11532 ft | 327 kts | 131° |
| 2026-04-23 04:27 | 11.62627 | 124.54437 | 11048 ft | 325 kts | 131° |
| 2026-04-23 04:28 | 11.59763 | 124.57943 | 10138 ft | 319 kts | 131° |
| 2026-04-23 04:28 | 11.58393 | 124.59621 | 10041 ft | 302 kts | 131° |
| 2026-04-23 04:28 | 11.57073 | 124.61238 | 9824 ft | 293 kts | 131° |
| 2026-04-23 04:28 | 11.55773 | 124.62828 | 9404 ft | 292 kts | 131° |
| 2026-04-23 04:29 | 11.54480 | 124.64408 | 9003 ft | 289 kts | 130° |
| 2026-04-23 04:29 | 11.53199 | 124.65973 | 8624 ft | 285 kts | 130° |
| 2026-04-23 04:29 | 11.51938 | 124.67516 | 8252 ft | 282 kts | 130° |
| 2026-04-23 04:29 | 11.50694 | 124.69048 | 7873 ft | 278 kts | 129° |
| 2026-04-23 04:30 | 11.49699 | 124.70721 | 7497 ft | 275 kts | 115° |
| 2026-04-23 04:30 | 11.48985 | 124.72522 | 7133 ft | 273 kts | 111° |
| 2026-04-23 04:30 | 11.48335 | 124.74337 | 6770 ft | 272 kts | 110° |
| 2026-04-23 04:30 | 11.47706 | 124.76115 | 6416 ft | 270 kts | 110° |
| 2026-04-23 04:31 | 11.47068 | 124.77913 | 6039 ft | 268 kts | 110° |
| 2026-04-23 04:31 | 11.46433 | 124.79693 | 5675 ft | 266 kts | 110° |
| 2026-04-23 04:31 | 11.45801 | 124.81460 | 5324 ft | 264 kts | 110° |
| 2026-04-23 04:31 | 11.45185 | 124.83176 | 4981 ft | 261 kts | 110° |
| 2026-04-23 04:32 | 11.44564 | 124.84906 | 4632 ft | 260 kts | 110° |
| 2026-04-23 04:32 | 11.43949 | 124.86620 | 4275 ft | 256 kts | 110° |
| 2026-04-23 04:32 | 11.43344 | 124.88305 | 4062 ft | 247 kts | 110° |
| 2026-04-23 04:32 | 11.42765 | 124.89914 | 3808 ft | 243 kts | 110° |
| 2026-04-23 04:33 | 11.42184 | 124.91526 | 3467 ft | 242 kts | 110° |
| 2026-04-23 04:33 | 11.41619 | 124.93130 | 3198 ft | 241 kts | 107° |
| 2026-04-23 04:33 | 11.41295 | 124.94808 | 2885 ft | 242 kts | 97° |
| 2026-04-23 04:33 | 11.41155 | 124.96515 | 2490 ft | 242 kts | 95° |
| 2026-04-23 04:34 | 11.41052 | 124.98235 | 2219 ft | 242 kts | 96° |
| 2026-04-23 04:34 | 11.40949 | 124.99942 | 2137 ft | 240 kts | 94° |
| 2026-04-23 04:34 | 11.40690 | 125.01560 | 2095 ft | 221 kts | 108° |
| 2026-04-23 04:34 | 11.39931 | 125.02827 | 1924 ft | 204 kts | 133° |
| 2026-04-23 04:35 | 11.38787 | 125.03568 | 1763 ft | 192 kts | 159° |
| 2026-04-23 04:35 | 11.37542 | 125.03756 | 1741 ft | 170 kts | 176° |
| 2026-04-23 04:35 | 11.36464 | 125.03709 | 1756 ft | 142 kts | 179° |
| 2026-04-23 04:35 | 11.35540 | 125.03639 | 1732 ft | 130 kts | 181° |
| 2026-04-23 04:36 | 11.34639 | 125.03574 | 1734 ft | 128 kts | 178° |
| 2026-04-23 04:36 | 11.33753 | 125.03513 | 1731 ft | 128 kts | 179° |
| 2026-04-23 04:36 | 11.32874 | 125.03452 | 1730 ft | 125 kts | 178° |
| 2026-04-23 04:36 | 11.32017 | 125.03394 | 1714 ft | 124 kts | 180° |
| 2026-04-23 04:37 | 11.31160 | 125.03334 | 1559 ft | 125 kts | 176° |
| 2026-04-23 04:37 | 11.30307 | 125.03233 | 1411 ft | 122 kts | 176° |
| 2026-04-23 04:37 | 11.29460 | 125.03166 | 1272 ft | 121 kts | 174° |
| 2026-04-23 04:37 | 11.28621 | 125.03103 | 1139 ft | 122 kts | 179° |
| 2026-04-23 04:38 | 11.27761 | 125.03120 | 887 ft | 124 kts | 175° |
| 2026-04-23 04:38 | 11.26914 | 125.03044 | 646 ft | 120 kts | 186° |
| 2026-04-23 04:38 | 11.26098 | 125.03000 | 430 ft | 117 kts | 177° |
| 2026-04-23 04:38 | 11.25283 | 125.02941 | 353 ft | 121 kts | 179° |
| 2026-04-23 04:39 | 11.24464 | 125.02873 | 200 ft | 119 kts | 176° |
| 2026-04-23 04:39 | 11.23638 | 125.02831 | 41 ft | 118 kts | 182° |
| 2026-04-23 04:39 | 11.22904 | 125.02784 | 12 ft | 84 kts | 185° |
| 2026-04-23 04:39 | 11.22467 | 125.02756 | 16 ft | 51 kts | 185° |
| 2026-04-23 04:40 | 11.22163 | 125.02726 | 17 ft | 26 kts | 182° |
| 2026-04-23 04:40 | 11.22012 | 125.02728 | 18 ft | 21 kts | 188° |
| 2026-04-23 04:40 | 11.21848 | 125.02739 | 14 ft | 14 kts | 155° |
| 2026-04-23 04:40 | 11.21823 | 125.02734 | 14 ft | 2 kts | 278° |
| 2026-04-23 04:41 | 11.21927 | 125.02725 | 15 ft | 29 kts | 13° |
| 2026-04-23 04:41 | 11.22090 | 125.02729 | 18 ft | 20 kts | 7° |
| 2026-04-23 04:41 | 11.22236 | 125.02741 | 18 ft | 24 kts | 2° |
| 2026-04-23 04:41 | 11.22459 | 125.02756 | 16 ft | 39 kts | 1° |
| 2026-04-23 04:42 | 11.22545 | 125.02740 | 16 ft | 6 kts | 306° |
| 2026-04-23 04:42 | 11.22566 | 125.02696 | 15 ft | 2 kts | 278° |
| 2026-04-23 04:42 | 11.22586 | 125.02688 | 15 ft | 9 kts | 350° |
| 2026-04-23 04:42 | 11.22629 | 125.02677 | 14 ft | 1 kts | 331° |
| 2026-04-23 04:43 | 11.22634 | 125.02661 | 14 ft | 5 kts | 300° |
| 2026-04-23 04:43 | 11.22640 | 125.02653 | 16 ft | 0 kts | 307° |